| time (UTC) | temp F | wind direction | speed knots | gust knots | rain 1hr in | rain 24hr in | rain mn in | humidity % | barometer mb |
| 20260906162638 | 91 | 87 | 2.6 | 4.3 | 0.00 | 0.05 | 0.00 | 63 | 1013.0 |
| 20260906161738 | 90 | 83 | 1.7 | 7.0 | 0.00 | 0.05 | 0.00 | 64 | 1013.3 |
| 20260906161514 | 90 | 109 | 1.7 | 5.2 | 0.00 | 0.05 | 0.00 | 64 | 1012.0 |
| 20260906160838 | 90 | 2 | 1.7 | 4.3 | 0.00 | 0.05 | 0.00 | 65 | 1013.3 |
| 20260906160016 | 89 | 320 | 0.9 | 3.5 | 0.00 | 0.05 | 0.00 | 65 | 1012.2 |
| 20260906155938 | 89 | 88 | 0.9 | 3.5 | 0.00 | 0.05 | 0.00 | 66 | 1013.4 |
| 20260906155038 | 88 | 94 | 1.7 | 4.3 | 0.00 | 0.05 | 0.00 | 67 | 1013.6 |
| 20260906154515 | 88 | 137 | 1.7 | 4.3 | 0.00 | 0.05 | 0.00 | 67 | 1012.5 |
| 20260906154138 | 88 | 63 | 1.7 | 5.2 | 0.00 | 0.05 | 0.00 | 67 | 1013.6 |
| 20260906153238 | 88 | 62 | 1.7 | 4.3 | 0.00 | 0.05 | 0.00 | 68 | 1013.6 |
| 20260906153023 | 87 | 111 | 0.9 | 2.6 | 0.00 | 0.05 | 0.00 | 68 | 1012.5 |
| 20260906152359 | 87 | 29 | 1.7 | 4.3 | 0.00 | 0.05 | 0.00 | 68 | 1013.7 |
| 20260906151519 | 86 | 123 | 0.9 | 3.5 | 0.00 | 0.05 | 0.00 | 71 | 1012.4 |
| 20260906151438 | 86 | 74 | 0.9 | 3.5 | 0.00 | 0.05 | 0.00 | 70 | 1013.6 |
| 20260906150538 | 85 | 62 | 1.7 | 3.5 | 0.00 | 0.05 | 0.00 | 69 | 1013.6 |
| 20260906150111 | 85 | 82 | 1.7 | 3.5 | 0.00 | 0.05 | 0.00 | 70 | 1012.4 |
| 20260906145659 | 85 | 87 | 0.9 | 3.5 | 0.00 | 0.05 | 0.00 | 70 | 1013.7 |
| 20260906144738 | 84 | 107 | 0.9 | 2.6 | 0.00 | 0.05 | 0.00 | 71 | 1013.7 |
| 20260906144504 | 84 | 92 | 0.9 | 2.6 | 0.00 | 0.05 | 0.00 | 72 | 1012.4 |
| 20260906143838 | 84 | 100 | 1.7 | 2.6 | 0.00 | 0.05 | 0.00 | 72 | 1013.7 |
| 20260906143011 | 83 | 151 | 0.0 | 2.6 | 0.00 | 0.05 | 0.00 | 76 | 1012.4 |
| 20260906142959 | 84 | 359 | 0.9 | 2.6 | 0.00 | 0.05 | 0.00 | 76 | 1013.6 |
| 20260906142038 | 83 | 337 | 0.9 | 2.6 | 0.00 | 0.05 | 0.00 | 75 | 1013.6 |
| 20260906141521 | 82 | 277 | 0.0 | 2.6 | 0.00 | 0.05 | 0.00 | 77 | 1012.5 |
| 20260906141138 | 82 | 247 | 0.9 | 2.6 | 0.00 | 0.05 | 0.00 | 77 | 1013.8 |
| 20260906140238 | 81 | 255 | 1.7 | 2.6 | 0.00 | 0.05 | 0.00 | 78 | 1013.8 |
| 20260906140011 | 80 | 257 | 0.9 | 2.6 | 0.00 | 0.05 | 0.00 | 78 | 1012.6 |
| 20260906135338 | 80 | 276 | 0.9 | 3.5 | 0.00 | 0.05 | 0.00 | 79 | 1013.9 |
| 20260906134512 | 79 | 252 | 0.9 | 2.6 | 0.00 | 0.05 | 0.00 | 81 | 1012.7 |
| 20260906134438 | 80 | 341 | 0.9 | 2.6 | 0.00 | 0.05 | 0.00 | 82 | 1013.9 |
| 20260906133538 | 78 | 291 | 0.9 | 2.6 | 0.00 | 0.05 | 0.00 | 83 | 1014.0 |
| 20260906133014 | 77 | 180 | 0.9 | 2.6 | 0.00 | 0.05 | 0.00 | 86 | 1012.9 |
| 20260906132638 | 78 | 290 | 0.9 | 1.7 | 0.00 | 0.05 | 0.00 | 87 | 1014.1 |
| 20260906131738 | 76 | 265 | 0.0 | 0.9 | 0.00 | 0.05 | 0.00 | 89 | 1014.1 |
| 20260906131516 | 76 | 259 | 0.0 | 0.9 | 0.00 | 0.05 | 0.00 | 89 | 1013.0 |
| 20260906130838 | 76 | 0 | 0.0 | 0.0 | 0.00 | 0.05 | 0.00 | 90 | 1014.2 |
| 20260906130004 | 75 | 289 | 0.0 | 1.7 | 0.00 | 0.05 | 0.00 | 90 | 1012.8 |
| 20260906125959 | 75 | 290 | 0.0 | 1.7 | 0.00 | 0.05 | 0.00 | 90 | 1014.1 |
| 20260906125038 | 75 | 289 | 0.0 | 1.7 | 0.00 | 0.05 | 0.00 | 91 | 1014.1 |
| 20260906124509 | 74 | 290 | 0.0 | 0.9 | 0.00 | 0.05 | 0.00 | 91 | 1012.9 |
| 20260906124159 | 74 | 289 | 0.0 | 0.9 | 0.00 | 0.05 | 0.00 | 92 | 1014.2 |
| 20260906123238 | 74 | 291 | 0.9 | 2.6 | 0.00 | 0.05 | 0.00 | 92 | 1014.1 |
| 20260906123019 | 73 | 290 | 0.9 | 2.6 | 0.00 | 0.05 | 0.00 | 92 | 1013.1 |
| 20260906122338 | 74 | 293 | 0.9 | 2.6 | 0.00 | 0.05 | 0.00 | 92 | 1014.1 |
| 20260906121518 | 73 | 294 | 0.0 | 2.6 | 0.00 | 0.05 | 0.00 | 92 | 1012.8 |
| 20260906121438 | 73 | 323 | 0.9 | 2.6 | 0.00 | 0.05 | 0.00 | 92 | 1013.9 |
| 20260906120538 | 73 | 342 | 0.0 | 1.7 | 0.00 | 0.05 | 0.00 | 92 | 1013.7 |
| 20260906120009 | 73 | 342 | 0.0 | 1.7 | 0.00 | 0.05 | 0.00 | 92 | 1012.4 |
| 20260906115638 | 73 | 342 | 0.9 | 1.7 | 0.00 | 0.05 | 0.00 | 92 | 1013.5 |
| 20260906114738 | 73 | 343 | 0.9 | 1.7 | 0.00 | 0.05 | 0.00 | 92 | 1013.4 |
| 20260906114505 | 73 | 342 | 0.0 | 1.7 | 0.00 | 0.05 | 0.00 | 92 | 1012.2 |
| 20260906113838 | 73 | 348 | 0.9 | 1.7 | 0.00 | 0.05 | 0.00 | 92 | 1013.3 |
| 20260906113008 | 73 | 350 | 0.0 | 0.0 | 0.00 | 0.05 | 0.00 | 92 | 1011.9 |
| 20260906112938 | 73 | 0 | 0.0 | 0.0 | 0.00 | 0.05 | 0.00 | 92 | 1013.0 |
| 20260906112038 | 73 | 350 | 0.0 | 1.7 | 0.00 | 0.05 | 0.00 | 92 | 1013.0 |
| 20260906111514 | 73 | 350 | 0.0 | 1.7 | 0.00 | 0.05 | 0.00 | 92 | 1011.9 |
| 20260906111138 | 73 | 348 | 0.9 | 1.7 | 0.00 | 0.05 | 0.00 | 92 | 1012.9 |
| 20260906110238 | 73 | 346 | 0.9 | 1.7 | 0.00 | 0.05 | 0.00 | 92 | 1012.9 |
| 20260906110003 | 73 | 348 | 0.0 | 1.7 | 0.00 | 0.05 | 0.00 | 92 | 1011.8 |
| 20260906105338 | 73 | 331 | 0.0 | 0.9 | 0.00 | 0.05 | 0.00 | 92 | 1012.9 |
| 20260906104511 | 73 | 331 | 0.0 | 0.9 | 0.00 | 0.05 | 0.00 | 92 | 1011.7 |
| 20260906104438 | 73 | 331 | 0.0 | 0.9 | 0.00 | 0.05 | 0.00 | 92 | 1012.9 |
| 20260906103538 | 73 | 331 | 0.0 | 0.9 | 0.00 | 0.05 | 0.00 | 92 | 1012.9 |
| 20260906103031 | 73 | 331 | 0.0 | 0.9 | 0.00 | 0.05 | 0.00 | 92 | 1011.7 |
| 20260906102659 | 73 | 331 | 0.9 | 1.7 | 0.00 | 0.05 | 0.00 | 92 | 1013.0 |
| 20260906101738 | 73 | 331 | 0.0 | 0.9 | 0.00 | 0.05 | 0.00 | 92 | 1012.9 |
| 20260906101518 | 73 | 331 | 0.0 | 0.9 | 0.00 | 0.05 | 0.00 | 92 | 1011.9 |
| 20260906100838 | 73 | 331 | 0.0 | 1.7 | 0.00 | 0.05 | 0.00 | 92 | 1012.9 |
| 20260906100021 | 73 | 331 | 0.0 | 1.7 | 0.00 | 0.05 | 0.00 | 92 | 1011.9 |
| 20260906095959 | 73 | 331 | 0.0 | 1.7 | 0.00 | 0.05 | 0.00 | 92 | 1013.0 |
| 20260906095038 | 73 | 331 | 0.0 | 0.9 | 0.00 | 0.05 | 0.00 | 92 | 1013.2 |
| 20260906094511 | 73 | 331 | 0.0 | 0.9 | 0.00 | 0.05 | 0.00 | 92 | 1012.1 |
| 20260906094159 | 73 | 330 | 0.0 | 0.9 | 0.00 | 0.05 | 0.00 | 92 | 1013.4 |
| 20260906093238 | 73 | 329 | 0.0 | 1.7 | 0.00 | 0.05 | 0.00 | 92 | 1013.4 |
| 20260906093019 | 72 | 360 | 0.0 | 0.9 | 0.00 | 0.05 | 0.00 | 92 | 1012.2 |
| 20260906092338 | 73 | 330 | 0.9 | 1.7 | 0.00 | 0.05 | 0.00 | 92 | 1013.3 |
| 20260906091506 | 72 | 329 | 0.0 | 1.7 | 0.00 | 0.05 | 0.00 | 92 | 1012.1 |
| 20260906091438 | 73 | 328 | 0.9 | 1.7 | 0.00 | 0.05 | 0.00 | 92 | 1013.2 |
| 20260906090559 | 73 | 326 | 0.9 | 1.7 | 0.00 | 0.05 | 0.00 | 92 | 1013.1 |
| 20260906090012 | 72 | 321 | 0.9 | 1.7 | 0.00 | 0.05 | 0.00 | 92 | 1012.0 |
| 20260906085638 | 73 | 327 | 0.9 | 1.7 | 0.00 | 0.05 | 0.00 | 92 | 1013.2 |
| 20260906084738 | 73 | 326 | 0.0 | 0.9 | 0.00 | 0.05 | 0.00 | 92 | 1013.3 |
| 20260906084603 | 72 | 360 | 0.0 | 0.9 | 0.00 | 0.05 | 0.00 | 92 | 1012.1 |
| 20260906083838 | 73 | 323 | 0.0 | 0.9 | 0.00 | 0.05 | 0.00 | 92 | 1013.0 |
| 20260906083008 | 72 | 321 | 0.0 | 1.7 | 0.00 | 0.05 | 0.00 | 92 | 1012.1 |
| 20260906082938 | 73 | 325 | 0.9 | 1.7 | 0.00 | 0.05 | 0.00 | 92 | 1013.3 |
| 20260906082038 | 73 | 319 | 0.9 | 0.9 | 0.00 | 0.05 | 0.00 | 92 | 1013.1 |
| 20260906081513 | 72 | 360 | 0.0 | 0.9 | 0.00 | 0.05 | 0.00 | 92 | 1011.7 |
| 20260906081139 | 73 | 318 | 0.0 | 0.9 | 0.00 | 0.05 | 0.00 | 92 | 1012.7 |
| 20260906080238 | 73 | 321 | 0.9 | 0.9 | 0.00 | 0.05 | 0.00 | 92 | 1012.6 |
| 20260906080002 | 72 | 318 | 0.0 | 0.9 | 0.00 | 0.05 | 0.00 | 92 | 1011.4 |
| 20260906075400 | 73 | 322 | 0.9 | 1.7 | 0.00 | 0.05 | 0.00 | 92 | 1012.5 |
| 20260906074507 | 72 | 316 | 0.0 | 0.9 | 0.00 | 0.05 | 0.00 | 91 | 1011.4 |
| 20260906074438 | 73 | 316 | 0.0 | 0.9 | 0.00 | 0.05 | 0.00 | 91 | 1012.6 |
| 20260906073600 | 73 | 319 | 0.0 | 1.7 | 0.00 | 0.05 | 0.00 | 91 | 1012.6 |
| 20260906073009 | 73 | 316 | 0.0 | 1.7 | 0.00 | 0.05 | 0.00 | 91 | 1011.5 |
| 20260906072638 | 73 | 317 | 0.9 | 1.7 | 0.00 | 0.05 | 0.00 | 91 | 1012.8 |
| 20260906071739 | 73 | 0 | 0.0 | 0.0 | 0.00 | 0.05 | 0.00 | 91 | 1012.6 |
| 20260906071514 | 73 | 63 | 0.0 | 0.0 | 0.00 | 0.05 | 0.00 | 91 | 1011.5 |
| 20260906070839 | 74 | 0 | 0.0 | 0.0 | 0.00 | 0.05 | 0.00 | 92 | 1013.2 |
| 20260906070004 | 73 | 65 | 0.0 | 0.0 | 0.00 | 0.05 | 0.00 | 92 | 1011.7 |
| 20260906065938 | 74 | 0 | 0.0 | 0.0 | 0.00 | 0.05 | 0.00 | 92 | 1012.9 |
| 20260906065039 | 74 | 0 | 0.0 | 0.0 | 0.00 | 0.05 | 0.00 | 91 | 1012.9 |
| 20260906064508 | 73 | 65 | 0.0 | 0.0 | 0.00 | 0.05 | 0.00 | 91 | 1011.6 |
| 20260906064139 | 74 | 0 | 0.0 | 0.0 | 0.00 | 0.05 | 0.00 | 91 | 1012.8 |
| 20260906063239 | 74 | 0 | 0.0 | 0.0 | 0.00 | 0.05 | 0.00 | 91 | 1012.8 |
| 20260906063011 | 73 | 65 | 0.0 | 0.0 | 0.00 | 0.05 | 0.00 | 91 | 1011.7 |
| 20260906062339 | 74 | 0 | 0.0 | 0.0 | 0.00 | 0.05 | 0.00 | 91 | 1012.9 |
| 20260906061523 | 74 | 65 | 0.0 | 0.0 | 0.00 | 0.05 | 0.00 | 91 | 1011.9 |
| 20260906061438 | 74 | 0 | 0.0 | 0.0 | 0.00 | 0.05 | 0.00 | 91 | 1013.0 |
| 20260906060539 | 74 | 66 | 0.0 | 0.9 | 0.00 | 0.05 | 0.00 | 91 | 1012.9 |
| 20260906060005 | 74 | 71 | 0.0 | 0.9 | 0.00 | 0.05 | 0.00 | 91 | 1011.7 |
| 20260906055639 | 74 | 57 | 0.0 | 0.9 | 0.00 | 0.05 | 0.00 | 91 | 1012.9 |
| 20260906054739 | 74 | 64 | 0.9 | 1.7 | 0.00 | 0.05 | 0.00 | 91 | 1013.0 |
| 20260906054522 | 74 | 69 | 0.0 | 1.7 | 0.00 | 0.05 | 0.00 | 91 | 1011.8 |
| 20260906053839 | 74 | 59 | 0.0 | 1.7 | 0.00 | 0.05 | 0.00 | 91 | 1013.1 |
| 20260906053009 | 74 | 57 | 0.0 | 0.9 | 0.00 | 0.05 | 0.00 | 90 | 1011.9 |
| 20260906052939 | 74 | 56 | 0.9 | 0.9 | 0.00 | 0.05 | 0.00 | 90 | 1013.2 |
| 20260906052039 | 75 | 57 | 0.0 | 1.7 | 0.00 | 0.05 | 0.00 | 90 | 1013.3 |
| 20260906051514 | 74 | 64 | 0.0 | 0.0 | 0.00 | 0.05 | 0.00 | 90 | 1012.2 |
| 20260906051139 | 75 | 45 | 0.0 | 1.7 | 0.00 | 0.05 | 0.00 | 90 | 1013.5 |
| 20260906050239 | 75 | 51 | 0.0 | 1.7 | 0.00 | 0.05 | 0.00 | 90 | 1013.6 |
| 20260906045339 | 75 | 71 | 0.0 | 0.9 | 0.00 | 0.05 | 0.00 | 90 | 1013.5 |
| 20260906044508 | 75 | 69 | 0.0 | 0.9 | 0.00 | 0.05 | 0.00 | 90 | 1012.4 |
| 20260906044439 | 75 | 65 | 0.0 | 0.9 | 0.00 | 0.05 | 0.00 | 90 | 1013.6 |
| 20260906043539 | 75 | 60 | 0.0 | 0.9 | 0.00 | 0.05 | 0.00 | 90 | 1013.7 |
| 20260906043020 | 75 | 59 | 0.0 | 0.9 | 0.00 | 0.05 | 0.00 | 89 | 1012.5 |
| 20260906042639 | 76 | 57 | 0.9 | 1.7 | 0.00 | 0.05 | 0.00 | 89 | 1013.6 |
| 20260906041739 | 76 | 58 | 0.0 | 0.9 | 0.00 | 0.05 | 0.00 | 89 | 1013.7 |
| 20260906041509 | 75 | 58 | 0.0 | 0.9 | 0.00 | 0.05 | 0.00 | 89 | 1012.5 |
| 20260906040839 | 76 | 0 | 0.0 | 0.0 | 0.00 | 0.05 | 0.00 | 89 | 1013.7 |
| 20260906040012 | 76 | 55 | 0.0 | 0.9 | 0.00 | 0.05 | 0.00 | 89 | 1012.4 |
| 20260906040000 | 76 | 54 | 0.0 | 0.9 | 0.00 | 0.05 | 0.00 | 89 | 1013.6 |
| 20260906035039 | 76 | 53 | 0.9 | 1.7 | 0.00 | 0.05 | 0.05 | 89 | 1013.6 |
| 20260906034517 | 76 | 53 | 0.0 | 1.7 | 0.00 | 0.05 | 0.05 | 89 | 1012.4 |
| 20260906034139 | 76 | 53 | 0.0 | 1.7 | 0.00 | 0.05 | 0.05 | 89 | 1013.8 |
| 20260906033239 | 77 | 62 | 0.0 | 0.9 | 0.00 | 0.05 | 0.05 | 89 | 1013.8 |
| 20260906033005 | 76 | 53 | 0.0 | 0.9 | 0.00 | 0.05 | 0.05 | 89 | 1012.5 |
| 20260906032339 | 77 | 77 | 0.9 | 1.7 | 0.00 | 0.05 | 0.05 | 88 | 1013.8 |
| 20260906031512 | 76 | 78 | 0.0 | 1.7 | 0.00 | 0.05 | 0.05 | 88 | 1012.6 |
| 20260906031500 | 77 | 78 | 0.9 | 1.7 | 0.00 | 0.05 | 0.05 | 88 | 1013.8 |
| 20260906030539 | 77 | 78 | 0.0 | 1.7 | 0.00 | 0.05 | 0.05 | 88 | 1013.9 |
| 20260906030017 | 77 | 79 | 0.0 | 0.9 | 0.00 | 0.05 | 0.05 | 88 | 1012.5 |
| 20260906025639 | 77 | 78 | 0.0 | 0.9 | 0.00 | 0.05 | 0.05 | 88 | 1013.7 |
| 20260906024739 | 77 | 86 | 0.0 | 1.7 | 0.00 | 0.05 | 0.05 | 88 | 1013.6 |
| 20260906024507 | 77 | 78 | 0.0 | 1.7 | 0.00 | 0.05 | 0.05 | 88 | 1012.3 |
| 20260906023839 | 77 | 135 | 0.0 | 0.9 | 0.00 | 0.05 | 0.05 | 87 | 1013.5 |
| 20260906023012 | 77 | 135 | 0.0 | 2.6 | 0.00 | 0.05 | 0.05 | 88 | 1012.1 |
| 20260906022939 | 78 | 346 | 0.9 | 2.6 | 0.00 | 0.05 | 0.05 | 87 | 1013.4 |
| 20260906022100 | 78 | 331 | 0.9 | 1.7 | 0.00 | 0.05 | 0.05 | 88 | 1013.7 |
| 20260906021606 | 78 | 331 | 0.9 | 1.7 | 0.00 | 0.05 | 0.05 | 88 | 1012.3 |
| 20260906021139 | 78 | 331 | 0.9 | 1.7 | 0.00 | 0.05 | 0.05 | 88 | 1013.6 |
| 20260906020239 | 78 | 331 | 0.0 | 1.7 | 0.00 | 0.05 | 0.05 | 87 | 1013.5 |
| 20260906020007 | 77 | 331 | 0.0 | 1.7 | 0.00 | 0.05 | 0.05 | 87 | 1012.3 |
| 20260906015339 | 78 | 330 | 0.0 | 1.7 | 0.00 | 0.05 | 0.05 | 87 | 1013.6 |
| 20260906014517 | 77 | 330 | 0.0 | 1.7 | 0.00 | 0.05 | 0.05 | 87 | 1012.3 |
| 20260906014439 | 78 | 330 | 0.0 | 1.7 | 0.00 | 0.05 | 0.05 | 87 | 1013.6 |
| 20260906013539 | 78 | 329 | 0.9 | 1.7 | 0.00 | 0.05 | 0.05 | 87 | 1013.5 |
| 20260906013031 | 78 | 330 | 0.9 | 1.7 | 0.00 | 0.05 | 0.05 | 87 | 1012.2 |
| 20260906012639 | 78 | 326 | 0.0 | 1.7 | 0.00 | 0.05 | 0.05 | 87 | 1013.3 |
| 20260906011739 | 78 | 20 | 0.9 | 2.6 | 0.00 | 0.05 | 0.05 | 86 | 1013.0 |
| 20260906011503 | 78 | 326 | 0.9 | 2.6 | 0.00 | 0.05 | 0.05 | 86 | 1011.7 |
| 20260906010900 | 78 | 76 | 0.9 | 1.7 | 0.00 | 0.05 | 0.05 | 86 | 1012.6 |
| 20260906010011 | 78 | 78 | 0.0 | 1.7 | 0.00 | 0.05 | 0.05 | 86 | 1011.0 |
| 20260906010000 | 79 | 79 | 0.0 | 1.7 | 0.00 | 0.05 | 0.05 | 86 | 1012.2 |
| 20260906005100 | 79 | 76 | 0.0 | 0.9 | 0.00 | 0.05 | 0.05 | 86 | 1011.7 |
| 20260906004515 | 79 | 76 | 0.0 | 1.7 | 0.00 | 0.05 | 0.05 | 86 | 1010.5 |
| 20260906004139 | 79 | 61 | 0.9 | 1.7 | 0.00 | 0.05 | 0.05 | 86 | 1011.8 |
| 20260906003300 | 80 | 61 | 0.9 | 0.9 | 0.00 | 0.05 | 0.05 | 86 | 1011.7 |
| 20260906003010 | 79 | 61 | 0.0 | 0.9 | 0.00 | 0.05 | 0.05 | 86 | 1010.4 |
| 20260906002339 | 80 | 61 | 0.0 | 1.7 | 0.00 | 0.05 | 0.05 | 85 | 1011.7 |
| 20260906001512 | 80 | 61 | 0.0 | 1.7 | 0.00 | 0.05 | 0.05 | 84 | 1010.5 |
| 20260906001439 | 80 | 65 | 0.9 | 1.7 | 0.00 | 0.05 | 0.05 | 84 | 1011.8 |
| 20260906000539 | 81 | 63 | 0.0 | 1.7 | 0.00 | 0.05 | 0.05 | 84 | 1011.9 |
| 20260906000016 | 81 | 57 | 0.0 | 0.9 | 0.00 | 0.05 | 0.05 | 84 | 1010.6 |
| 20260905235639 | 82 | 57 | 0.9 | 1.7 | 0.00 | 0.05 | 0.05 | 83 | 1011.9 |
| 20260905234739 | 83 | 64 | 0.0 | 1.7 | 0.00 | 0.05 | 0.05 | 83 | 1012.2 |
| 20260905234504 | 82 | 63 | 0.0 | 1.7 | 0.00 | 0.05 | 0.05 | 82 | 1010.8 |
| 20260905233839 | 83 | 63 | 0.0 | 0.9 | 0.00 | 0.05 | 0.05 | 79 | 1012.1 |
| 20260905233009 | 83 | 63 | 0.0 | 0.9 | 0.00 | 0.05 | 0.05 | 81 | 1010.6 |
| 20260905232939 | 83 | 65 | 0.0 | 0.9 | 0.00 | 0.05 | 0.05 | 80 | 1011.9 |
| 20260905232039 | 82 | 66 | 0.9 | 1.7 | 0.00 | 0.05 | 0.05 | 78 | 1011.7 |
| 20260905231515 | 82 | 67 | 0.9 | 1.7 | 0.00 | 0.05 | 0.05 | 80 | 1010.3 |
| 20260905231139 | 82 | 63 | 0.9 | 1.7 | 0.00 | 0.05 | 0.05 | 82 | 1011.6 |
| 20260905230239 | 82 | 62 | 0.9 | 1.7 | 0.00 | 0.05 | 0.05 | 81 | 1011.5 |
| 20260905230005 | 81 | 62 | 0.0 | 1.7 | 0.00 | 0.05 | 0.05 | 83 | 1010.1 |
| 20260905225400 | 81 | 48 | 0.9 | 1.7 | 0.00 | 0.05 | 0.05 | 83 | 1011.4 |
| 20260905224515 | 81 | 22 | 1.7 | 2.6 | 0.03 | 0.05 | 0.05 | 84 | 1010.4 |
| 20260905224439 | 81 | 56 | 1.7 | 2.6 | 0.03 | 0.05 | 0.05 | 84 | 1011.7 |
| 20260905223539 | 81 | 62 | 0.0 | 1.7 | 0.05 | 0.05 | 0.05 | 80 | 1011.5 |
| 20260905223014 | 81 | 63 | 0.0 | 2.6 | 0.05 | 0.05 | 0.05 | 80 | 1010.1 |
| 20260905222700 | 81 | 70 | 0.9 | 2.6 | 0.05 | 0.05 | 0.05 | 80 | 1011.5 |
| 20260905221800 | 82 | 71 | 0.9 | 3.5 | 0.05 | 0.05 | 0.05 | 81 | 1011.9 |
| 20260905221502 | 81 | 73 | 1.7 | 3.5 | 0.05 | 0.05 | 0.05 | 80 | 1010.5 |
| 20260905220839 | 82 | 121 | 0.9 | 1.7 | 0.05 | 0.05 | 0.05 | 79 | 1011.9 |
| 20260905220007 | 84 | 94 | 0.0 | 3.5 | 0.05 | 0.05 | 0.05 | 75 | 1010.8 |
| 20260905215939 | 85 | 109 | 1.7 | 7.0 | 0.05 | 0.05 | 0.05 | 75 | 1012.2 |
| 20260905215039 | 89 | 325 | 2.6 | 7.8 | 0.05 | 0.05 | 0.05 | 65 | 1012.1 |
| 20260905214512 | 92 | 271 | 1.7 | 8.7 | 0.02 | 0.02 | 0.02 | 65 | 1010.6 |
| 20260905214139 | 94 | 73 | 3.5 | 8.7 | 0.01 | 0.01 | 0.01 | 61 | 1011.7 |
| 20260905213239 | 95 | 60 | 1.7 | 5.2 | 0.00 | 0.00 | 0.00 | 55 | 1011.2 |
| 20260905213016 | 96 | 82 | 1.7 | 3.5 | 0.00 | 0.00 | 0.00 | 59 | 1009.9 |
| 20260905212339 | 97 | 274 | 0.0 | 1.7 | 0.00 | 0.00 | 0.00 | 54 | 1011.0 |
| 20260905211504 | 97 | 337 | 0.0 | 1.7 | 0.00 | 0.00 | 0.00 | 51 | 1009.8 |
| 20260905211439 | 97 | 338 | 0.9 | 1.7 | 0.00 | 0.00 | 0.00 | 50 | 1011.1 |
| 20260905210539 | 98 | 6 | 1.7 | 3.5 | 0.00 | 0.00 | 0.00 | 49 | 1011.0 |
| 20260905210016 | 98 | 39 | 0.9 | 4.3 | 0.00 | 0.00 | 0.00 | 48 | 1009.7 |
| 20260905205639 | 99 | 50 | 1.7 | 4.3 | 0.00 | 0.00 | 0.00 | 49 | 1010.9 |
| 20260905204800 | 99 | 47 | 1.7 | 3.5 | 0.00 | 0.00 | 0.00 | 48 | 1011.1 |
| 20260905204506 | 99 | 70 | 0.9 | 3.5 | 0.00 | 0.00 | 0.00 | 47 | 1009.8 |
| 20260905203839 | 99 | 75 | 0.9 | 3.5 | 0.00 | 0.00 | 0.00 | 47 | 1011.4 |
| 20260905203008 | 98 | 78 | 0.0 | 6.1 | 0.00 | 0.00 | 0.00 | 48 | 1010.1 |
| 20260905202940 | 99 | 80 | 1.7 | 6.1 | 0.00 | 0.00 | 0.00 | 49 | 1011.4 |
| 20260905202039 | 99 | 87 | 0.9 | 5.2 | 0.00 | 0.00 | 0.00 | 48 | 1011.5 |
| 20260905201517 | 98 | 360 | 1.7 | 5.2 | 0.00 | 0.00 | 0.00 | 50 | 1010.3 |
| 20260905201139 | 98 | 88 | 2.6 | 7.0 | 0.00 | 0.00 | 0.00 | 49 | 1011.6 |
| 20260905200239 | 98 | 81 | 2.6 | 5.2 | 0.00 | 0.00 | 0.00 | 50 | 1011.7 |
| 20260905200023 | 97 | 74 | 1.7 | 4.3 | 0.00 | 0.00 | 0.00 | 52 | 1010.4 |
| 20260905195340 | 97 | 89 | 1.7 | 6.1 | 0.00 | 0.00 | 0.00 | 53 | 1011.7 |
| 20260905194603 | 96 | 84 | 1.7 | 6.1 | 0.00 | 0.00 | 0.00 | 51 | 1010.5 |
| 20260905194440 | 96 | 74 | 1.7 | 6.1 | 0.00 | 0.00 | 0.00 | 51 | 1011.8 |
| 20260905193540 | 96 | 66 | 1.7 | 5.2 | 0.00 | 0.00 | 0.00 | 56 | 1011.9 |
| 20260905193104 | 96 | 66 | 1.7 | 4.3 | 0.00 | 0.00 | 0.00 | 54 | 1010.6 |
| 20260905192701 | 97 | 105 | 1.7 | 5.2 | 0.00 | 0.00 | 0.00 | 53 | 1012.0 |
| 20260905191801 | 97 | 93 | 2.6 | 6.1 | 0.00 | 0.00 | 0.00 | 50 | 1012.2 |
| 20260905191508 | 97 | 142 | 2.6 | 6.1 | 0.00 | 0.00 | 0.00 | 49 | 1010.9 |
| 20260905190840 | 97 | 176 | 1.7 | 3.5 | 0.00 | 0.00 | 0.00 | 49 | 1012.2 |
| 20260905190010 | 96 | 113 | 1.7 | 3.5 | 0.00 | 0.00 | 0.00 | 51 | 1011.0 |
| 20260905190001 | 97 | 109 | 1.7 | 5.2 | 0.00 | 0.00 | 0.00 | 52 | 1012.4 |
| 20260905185040 | 96 | 74 | 1.7 | 5.2 | 0.00 | 0.00 | 0.00 | 53 | 1012.4 |
| 20260905184521 | 96 | 76 | 1.7 | 5.2 | 0.00 | 0.00 | 0.00 | 53 | 1011.2 |
| 20260905184140 | 96 | 51 | 2.6 | 6.1 | 0.00 | 0.00 | 0.00 | 53 | 1012.6 |
| 20260905183239 | 96 | 52 | 1.7 | 5.2 | 0.00 | 0.00 | 0.00 | 53 | 1012.7 |
| 20260905183018 | 96 | 259 | 1.7 | 4.3 | 0.00 | 0.00 | 0.00 | 53 | 1011.3 |
| 20260905182340 | 96 | 117 | 1.7 | 5.2 | 0.00 | 0.00 | 0.00 | 54 | 1012.7 |
| 20260905181503 | 95 | 112 | 0.9 | 5.2 | 0.00 | 0.00 | 0.00 | 54 | 1011.8 |
| 20260905181501 | 95 | 113 | 1.7 | 4.3 | 0.00 | 0.00 | 0.00 | 54 | 1013.1 |
| 20260905180601 | 95 | 86 | 2.6 | 6.1 | 0.00 | 0.00 | 0.00 | 58 | 1013.2 |
| 20260905180009 | 95 | 77 | 1.7 | 6.1 | 0.00 | 0.00 | 0.00 | 58 | 1011.9 |
| 20260905175640 | 95 | 87 | 1.7 | 5.2 | 0.00 | 0.00 | 0.00 | 57 | 1013.3 |
| 20260905174740 | 96 | 84 | 2.6 | 5.2 | 0.00 | 0.00 | 0.00 | 59 | 1013.5 |
| 20260905174506 | 95 | 51 | 2.6 | 5.2 | 0.00 | 0.00 | 0.00 | 57 | 1012.2 |
| 20260905173840 | 95 | 78 | 1.7 | 5.2 | 0.00 | 0.00 | 0.00 | 58 | 1013.6 |
| 20260905173108 | 95 | 70 | 0.9 | 5.2 | 0.00 | 0.00 | 0.00 | 61 | 1012.3 |
| 20260905172940 | 95 | 71 | 2.6 | 7.0 | 0.00 | 0.00 | 0.00 | 61 | 1013.6 |
| 20260905172040 | 95 | 76 | 2.6 | 7.8 | 0.00 | 0.00 | 0.00 | 59 | 1013.7 |
| 20260905171505 | 94 | 69 | 1.7 | 7.8 | 0.00 | 0.00 | 0.00 | 61 | 1012.5 |
| 20260905171140 | 95 | 89 | 2.6 | 7.8 | 0.00 | 0.00 | 0.00 | 60 | 1013.8 |
| 20260905170240 | 94 | 87 | 1.7 | 7.8 | 0.00 | 0.00 | 0.00 | 60 | 1014.0 |
| 20260905170008 | 94 | 100 | 0.9 | 5.2 | 0.00 | 0.00 | 0.00 | 61 | 1012.6 |
| 20260905165340 | 94 | 79 | 1.7 | 5.2 | 0.00 | 0.00 | 0.00 | 62 | 1014.1 |
| 20260905164510 | 93 | 71 | 1.7 | 5.2 | 0.00 | 0.00 | 0.00 | 64 | 1012.9 |
| 20260905164440 | 93 | 70 | 1.7 | 5.2 | 0.00 | 0.00 | 0.00 | 64 | 1014.2 |
| 20260905163540 | 92 | 55 | 0.9 | 3.5 | 0.00 | 0.00 | 0.00 | 65 | 1014.2 |
| 20260905163013 | 92 | 57 | 0.0 | 5.2 | 0.00 | 0.00 | 0.00 | 65 | 1013.1 |